Gloster, Mississippi
Current Conditions -  °F | °C
As of 9:53 AM on Sunday 23 Nov 2014 (Local Time) from KMCB Reporting Station
Scattered Clouds Scattered Clouds  
Wind Chill: 65°   Ceiling: Unl
Heat Index: 65°   Visibility: 10mi
Dew Point: 61°   Wind: 15mph
Humidity: 87%   Direction: 200°SSW
Pressure: 29.65"   Gusts: 23mph
Location:  31.2°N, 91.02°W
Report Text: KMCB 231553Z AUTO 20013G20KT 10SM SCT015 SCT043 18/16 A2965 RMK AO2 WSHFT 1506 RAE12 SLP036 P0001 T01830161
Loading
Personal Weather Stations






























Interactive Weather Map New forecast layout! Learn more

10-Day Weather Forecast

Advertisements
Track Severe Weather on mobile